Charlie — SVA7804 — position and weather

sailwx.info

Track history (hours):
 
Tides and Currents Weather Stations Pressure Air Temp Water Temp Dewpoint Dewpoint Depression Visibility Wind Speed Wind Dir Waves Ship Positions

Charlie

Last reported at 2017-Sep-23 23:28 UTC. Time now 2017-Sep-24 00:00 UTC.
Position N 37°26' E 025°24'.

Type: Sailing vessel. MMSI: 240040300.

Date/timePositionNaut miles runAvg speedWind from/ knotsBaromVisibWave heightAir tempDewpointWater temp
2017-Sep-23 23:28N 37°26' E 025°24'0 0.0
2017-Sep-23 22:58N 37°26' E 025°24'0 0.0
2017-Sep-23 22:28N 37°26' E 025°24'0 0.0
2017-Sep-23 21:58N 37°26' E 025°24'0 0.0
2017-Sep-23 21:25N 37°26' E 025°24'0 0.0
2017-Sep-23 20:58N 37°26' E 025°24'0 0.0
2017-Sep-23 20:28N 37°26' E 025°24'0 0.0
2017-Sep-23 19:58N 37°26' E 025°24'9 0.2
2017-Sep-22 01:59N 37°23' E 025°14'0 0.0
2017-Sep-22 01:29N 37°23' E 025°14'0 0.0
2017-Sep-22 00:59N 37°23' E 025°14'0 0.0
2017-Sep-22 00:29N 37°23' E 025°14'0 0.0
2017-Sep-21 23:59N 37°23' E 025°14'0 0.0
2017-Sep-21 23:26N 37°23' E 025°14'0 0.0
2017-Sep-21 22:59N 37°23' E 025°14'0 0.0
2017-Sep-21 22:26N 37°23' E 025°14'0 0.0
2017-Sep-21 21:59N 37°23' E 025°14'0 0.0
2017-Sep-21 21:29N 37°23' E 025°14'0 0.0
2017-Sep-21 20:59N 37°23' E 025°14'0 0.0
2017-Sep-21 20:29N 37°23' E 025°14'0 0.0
2017-Sep-21 19:59N 37°23' E 025°14'0 0.0
2017-Sep-21 19:29N 37°23' E 025°14'0 0.0
2017-Sep-21 18:59N 37°23' E 025°14'0 0.0
2017-Sep-21 18:29N 37°23' E 025°14'0 0.0
2017-Sep-21 17:59N 37°23' E 025°14'0 0.0
2017-Sep-21 17:29N 37°23' E 025°14'0 0.0
2017-Sep-21 16:59N 37°23' E 025°14'0 0.0
2017-Sep-21 16:29N 37°23' E 025°14'0 0.0
2017-Sep-21 15:59N 37°23' E 025°14'0 0.0
2017-Sep-21 15:29N 37°23' E 025°14'0 0.0
2017-Sep-21 14:53N 37°23' E 025°14'0 0.0
2017-Sep-21 14:29N 37°23' E 025°14'0 0.0
2017-Sep-21 13:56N 37°23' E 025°14'0 0.0
2017-Sep-21 13:29N 37°23' E 025°14'0 0.0
2017-Sep-21 12:59N 37°23' E 025°14'0 0.0
2017-Sep-21 12:29N 37°23' E 025°14'0 0.0
2017-Sep-21 11:59N 37°23' E 025°14'0 0.0
2017-Sep-21 11:29N 37°23' E 025°14'0 0.0
2017-Sep-21 10:50N 37°23' E 025°14'0 0.0
2017-Sep-21 10:26N 37°23' E 025°14'0 0.0
2017-Sep-21 09:59N 37°23' E 025°14'2 3.2
2017-Sep-21 09:30N 37°21' E 025°14'1 2.5
2017-Sep-21 09:00N 37°21' E 025°16'3 6.7
2017-Sep-21 08:30N 37°24' E 025°17'2 3.6
2017-Sep-21 08:00N 37°25' E 025°15'1 2.3
2017-Sep-21 07:30N 37°24' E 025°14'0 0.0
2017-Sep-21 07:00N 37°24' E 025°14'0 0.0
2017-Sep-21 06:30N 37°24' E 025°14'0 0.0
2017-Sep-21 06:00N 37°24' E 025°14'0 0.0
2017-Sep-21 05:30N 37°24' E 025°14'0 0.0
2017-Sep-21 05:00N 37°24' E 025°14'0 0.0
2017-Sep-21 04:30N 37°24' E 025°14'0 0.0
2017-Sep-21 04:00N 37°24' E 025°14'0 0.0
2017-Sep-21 03:30N 37°24' E 025°14'0 0.0
2017-Sep-21 03:00N 37°24' E 025°14'0 0.0
2017-Sep-21 02:30N 37°24' E 025°14'0 0.0
2017-Sep-21 02:00N 37°24' E 025°14'0 0.0
2017-Sep-21 01:30N 37°24' E 025°14'0 0.0
2017-Sep-21 00:57N 37°24' E 025°14'0 0.0
2017-Sep-21 00:30N 37°24' E 025°14'0 0.0
2017-Sep-21 00:00N 37°24' E 025°14'0 0.0
2017-Sep-20 23:27N 37°24' E 025°14'0 0.0
2017-Sep-20 22:57N 37°24' E 025°14'0 0.0
2017-Sep-20 22:24N 37°24' E 025°14'0 0.0
2017-Sep-20 22:00N 37°24' E 025°14'0 0.0
2017-Sep-20 21:30N 37°24' E 025°14'0 0.0
2017-Sep-20 21:00N 37°24' E 025°14'0 0.0
2017-Sep-20 20:30N 37°24' E 025°14'0 0.0
2017-Sep-20 20:00N 37°24' E 025°14'0 0.0
2017-Sep-20 19:30N 37°24' E 025°14'0 0.0
2017-Sep-20 19:00N 37°24' E 025°14'0 0.0
2017-Sep-20 18:30N 37°24' E 025°14'0 0.0
2017-Sep-20 18:00N 37°24' E 025°14'0 0.0
2017-Sep-20 17:30N 37°24' E 025°14'0 0.0
2017-Sep-20 17:00N 37°24' E 025°14'0 0.0
2017-Sep-20 16:30N 37°24' E 025°14'0 0.0
2017-Sep-20 16:00N 37°24' E 025°14'0 0.0
2017-Sep-20 15:30N 37°24' E 025°14'0 0.0
2017-Sep-20 13:42N 37°24' E 025°14'0 1.7
2017-Sep-20 13:28N 37°24' E 025°15'3 5.3
2017-Sep-20 13:00N 37°27' E 025°14'4 7.1
2017-Sep-20 12:29N 37°26' E 025°09'4 7.6
2017-Sep-20 12:00N 37°26' E 025°05'4 7.2
2017-Sep-20 11:27N 37°26' E 024°60'1 1.1
2017-Sep-20 10:44N 37°26' E 024°59'0 0.0
2017-Sep-20 10:05N 37°26' E 024°59'0 0.0
2017-Sep-20 09:47N 37°26' E 024°59'0 0.0
2017-Sep-20 09:08N 37°26' E 024°59'2 1.8
2017-Sep-20 08:04N 37°27' E 024°60'1 6.1
2017-Sep-20 07:53N 37°28' E 024°59'3 6.2
2017-Sep-20 07:22N 37°31' E 024°56'4 0.2
2017-Sep-19 10:25N 37°29' E 024°51'3 7.7
2017-Sep-19 10:00N 37°29' E 024°47'47 1.0
2017-Sep-17 09:22N 37°39' E 023°49'3 7.4
2017-Sep-17 08:55N 37°39' E 023°45'3 7.1
2017-Sep-17 08:30N 37°40' E 023°41'3 6.8
2017-Sep-17 08:00N 37°40' E 023°37'3 7.0
2017-Sep-17 07:30N 37°40' E 023°32'1 0.1
2017-Sep-16 15:08N 37°41' E 023°31'1 7.1
2017-Sep-16 15:01N 37°42' E 023°32'3 7.0
2017-Sep-16 14:31N 37°44' E 023°35'4 7.1
2017-Sep-16 14:01N 37°48' E 023°37'4 7.3
2017-Sep-16 13:31N 37°51' E 023°39'4 7.0
2017-Sep-16 13:01N 37°54' E 023°41'1 2.1
2017-Sep-16 12:30N 37°55' E 023°42'0 0.0
2017-Sep-16 11:54N 37°55' E 023°42'0 0.0
2017-Sep-16 11:30N 37°55' E 023°42'0 0.0
2017-Sep-16 11:00N 37°55' E 023°42'0 0.0
2017-Sep-16 10:30N 37°55' E 023°42'0 0.0
2017-Sep-16 10:00N 37°55' E 023°42'0 0.0
2017-Sep-16 09:30N 37°55' E 023°42'0 0.0
2017-Sep-16 09:00N 37°55' E 023°42'0 0.0
2017-Sep-16 08:30N 37°55' E 023°42'0 0.0
2017-Sep-16 08:00N 37°55' E 023°42'0 0.0
2017-Sep-16 07:30N 37°55' E 023°42'0 0.0
2017-Sep-16 07:00N 37°55' E 023°42'0 0.0
2017-Sep-16 06:30N 37°55' E 023°42'0 0.0
2017-Sep-16 06:00N 37°55' E 023°42'0 0.0
2017-Sep-16 05:30N 37°55' E 023°42'0 0.0
2017-Sep-16 05:00N 37°55' E 023°42'0 0.0
2017-Sep-16 04:30N 37°55' E 023°42'0 0.0
2017-Sep-16 03:54N 37°55' E 023°42'0 0.0
2017-Sep-16 03:30N 37°55' E 023°42'0 0.0
2017-Sep-16 03:00N 37°55' E 023°42'0 0.0
2017-Sep-16 02:30N 37°55' E 023°42'0 0.0
2017-Sep-16 02:00N 37°55' E 023°42'0 0.0
2017-Sep-16 01:30N 37°55' E 023°42'0 0.0
2017-Sep-16 01:00N 37°55' E 023°42'0 0.0
2017-Sep-16 00:27N 37°55' E 023°42'0 0.0
2017-Sep-16 00:00N 37°55' E 023°42'0 0.0
2017-Sep-15 23:30N 37°55' E 023°42'0 0.0
2017-Sep-15 23:00N 37°55' E 023°42'0 0.0
2017-Sep-15 22:30N 37°55' E 023°42'0 0.0
2017-Sep-15 21:57N 37°55' E 023°42'0 0.0
2017-Sep-15 21:30N 37°55' E 023°42'0 0.0
2017-Sep-15 21:00N 37°55' E 023°42'0 0.0
2017-Sep-15 20:30N 37°55' E 023°42'0 0.0
2017-Sep-15 20:00N 37°55' E 023°42'0 0.0
2017-Sep-15 19:30N 37°55' E 023°42'0 0.0
2017-Sep-15 19:00N 37°55' E 023°42'0 0.0
2017-Sep-15 18:30N 37°55' E 023°42'0 0.0
2017-Sep-15 18:00N 37°55' E 023°42'0 0.0
2017-Sep-15 17:30N 37°55' E 023°42'0 0.0
2017-Sep-15 17:00N 37°55' E 023°42'0 0.0
2017-Sep-15 16:30N 37°55' E 023°42'0 0.0
2017-Sep-15 15:57N 37°55' E 023°42'0 0.0
2017-Sep-15 15:30N 37°55' E 023°42'0 0.0
2017-Sep-15 15:00N 37°55' E 023°42'0 0.0
2017-Sep-15 14:30N 37°55' E 023°42'0 0.0
2017-Sep-15 14:00N 37°55' E 023°42'0 0.0
2017-Sep-15 13:30N 37°55' E 023°42'0 0.0
2017-Sep-15 13:00N 37°55' E 023°42'0 0.0
2017-Sep-15 12:30N 37°55' E 023°42'0 0.0
2017-Sep-15 12:00N 37°55' E 023°42'0 0.0
2017-Sep-15 11:27N 37°55' E 023°42'0 0.0
2017-Sep-15 11:00N 37°55' E 023°42'0 0.0
2017-Sep-15 10:30N 37°55' E 023°42'0 0.0
2017-Sep-15 10:00N 37°55' E 023°42'0 0.0
2017-Sep-15 09:27N 37°55' E 023°42'0 0.0
2017-Sep-15 09:00N 37°55' E 023°42'0 0.0
2017-Sep-15 08:30N 37°55' E 023°42'0 0.0
2017-Sep-15 08:00N 37°55' E 023°42'0 0.0
2017-Sep-15 07:18N 37°55' E 023°42'0 0.0
2017-Sep-15 07:00N 37°55' E 023°42'0 0.0
2017-Sep-15 06:24N 37°55' E 023°42'0 0.0
2017-Sep-15 06:00N 37°55' E 023°42'0 0.0
2017-Sep-15 05:30N 37°55' E 023°42'0 0.0
2017-Sep-15 05:00N 37°55' E 023°42'0 0.0
2017-Sep-15 04:27N 37°55' E 023°42'0 0.0
2017-Sep-15 04:00N 37°55' E 023°42'0 0.0
2017-Sep-15 03:30N 37°55' E 023°42'0 0.0
2017-Sep-15 03:00N 37°55' E 023°42'0 0.0
2017-Sep-15 02:30N 37°55' E 023°42'0 0.0
2017-Sep-15 02:00N 37°55' E 023°42'0 0.0
2017-Sep-15 01:27N 37°55' E 023°42'0 0.0
2017-Sep-15 01:00N 37°55' E 023°42'0 0.0
2017-Sep-15 00:30N 37°55' E 023°42'0 0.0
2017-Sep-14 23:57N 37°55' E 023°42'0 0.0
2017-Sep-14 23:30N 37°55' E 023°42'0 0.0
2017-Sep-14 23:00N 37°55' E 023°42'0 0.0
2017-Sep-14 22:30N 37°55' E 023°42'0 0.0
2017-Sep-14 22:00N 37°55' E 023°42'0 0.0
2017-Sep-14 21:30N 37°55' E 023°42'0 0.0
2017-Sep-14 21:00N 37°55' E 023°42'0 0.0
2017-Sep-14 20:30N 37°55' E 023°42'0 0.0
2017-Sep-14 20:00N 37°55' E 023°42'0 0.0
2017-Sep-14 19:30N 37°55' E 023°42'0 0.0
2017-Sep-14 19:00N 37°55' E 023°42'0 0.0
2017-Sep-14 18:30N 37°55' E 023°42'0 0.0
2017-Sep-14 18:00N 37°55' E 023°42'0 0.0
2017-Sep-14 17:30N 37°55' E 023°42'0 0.0
2017-Sep-14 17:00N 37°55' E 023°42'0 0.0
2017-Sep-14 16:30N 37°55' E 023°42'0 0.0
2017-Sep-14 16:00N 37°55' E 023°42'0 0.0
2017-Sep-14 15:30N 37°55' E 023°42'0 0.0
2017-Sep-14 15:00N 37°55' E 023°42'0 0.0
2017-Sep-14 14:30N 37°55' E 023°42'0 0.0
2017-Sep-14 14:00N 37°55' E 023°42'0 0.0
2017-Sep-14 13:30N 37°55' E 023°42'0 0.0
2017-Sep-14 12:57N 37°55' E 023°42'0 0.0
2017-Sep-14 12:30N 37°55' E 023°42'0 0.0
2017-Sep-14 12:00N 37°55' E 023°42'0 0.0
2017-Sep-14 11:27N 37°55' E 023°42'0 0.0
2017-Sep-14 10:48N 37°55' E 023°42'0 0.0
2017-Sep-14 10:30N 37°55' E 023°42'0 0.0
2017-Sep-14 09:57N 37°55' E 023°42'0 0.0
2017-Sep-14 09:30N 37°55' E 023°42'0 0.0
2017-Sep-14 09:00N 37°55' E 023°42'0 0.0
2017-Sep-14 08:30N 37°55' E 023°42'0 0.0
2017-Sep-14 08:00N 37°55' E 023°42'0 0.0
2017-Sep-14 07:30N 37°55' E 023°42'0 0.0
2017-Sep-14 07:00N 37°55' E 023°42'0 0.0
2017-Sep-14 06:30N 37°55' E 023°42'0 0.0
2017-Sep-14 06:00N 37°55' E 023°42'0 0.0
2017-Sep-14 05:27N 37°55' E 023°42'0 0.0
2017-Sep-14 04:48N 37°55' E 023°42'0 0.0
2017-Sep-14 04:24N 37°55' E 023°42'0 0.0
2017-Sep-14 03:48N 37°55' E 023°42'0 0.0
2017-Sep-14 03:09N 37°55' E 023°42'0 0.0
2017-Sep-14 02:51N 37°55' E 023°42'0 0.0
2017-Sep-14 02:06N 37°55' E 023°42'0 0.0
2017-Sep-14 02:00N 37°55' E 023°42'0 0.0
2017-Sep-14 01:30N 37°55' E 023°42'0 0.0
2017-Sep-14 00:54N 37°55' E 023°42'  
Track history (hours):
 
Tides and Currents Weather Stations Pressure Air Temp Water Temp Dewpoint Dewpoint Depression Visibility Wind Speed Wind Dir Waves Ship Positions

Charlie

Last reported at 2017-Sep-23 23:28 UTC. Time now 2017-Sep-24 00:00 UTC.
Position N 37°26' E 025°24'.

Type: Sailing vessel. MMSI: 240040300.

Date/timePositionNaut miles runAvg speedWind from/ knotsBaromVisibWave heightAir tempDewpointWater temp
2017-Sep-23 23:28N 37°26' E 025°24'0 0.0
2017-Sep-23 22:58N 37°26' E 025°24'0 0.0
2017-Sep-23 22:28N 37°26' E 025°24'0 0.0
2017-Sep-23 21:58N 37°26' E 025°24'0 0.0
2017-Sep-23 21:25N 37°26' E 025°24'0 0.0
2017-Sep-23 20:58N 37°26' E 025°24'0 0.0
2017-Sep-23 20:28N 37°26' E 025°24'0 0.0
2017-Sep-23 19:58N 37°26' E 025°24'9 0.2
2017-Sep-22 01:59N 37°23' E 025°14'0 0.0
2017-Sep-22 01:29N 37°23' E 025°14'0 0.0
2017-Sep-22 00:59N 37°23' E 025°14'0 0.0
2017-Sep-22 00:29N 37°23' E 025°14'0 0.0
2017-Sep-21 23:59N 37°23' E 025°14'0 0.0
2017-Sep-21 23:26N 37°23' E 025°14'0 0.0
2017-Sep-21 22:59N 37°23' E 025°14'0 0.0
2017-Sep-21 22:26N 37°23' E 025°14'0 0.0
2017-Sep-21 21:59N 37°23' E 025°14'0 0.0
2017-Sep-21 21:29N 37°23' E 025°14'0 0.0
2017-Sep-21 20:59N 37°23' E 025°14'0 0.0
2017-Sep-21 20:29N 37°23' E 025°14'0 0.0
2017-Sep-21 19:59N 37°23' E 025°14'0 0.0
2017-Sep-21 19:29N 37°23' E 025°14'0 0.0
2017-Sep-21 18:59N 37°23' E 025°14'0 0.0
2017-Sep-21 18:29N 37°23' E 025°14'0 0.0
2017-Sep-21 17:59N 37°23' E 025°14'0 0.0
2017-Sep-21 17:29N 37°23' E 025°14'0 0.0
2017-Sep-21 16:59N 37°23' E 025°14'0 0.0
2017-Sep-21 16:29N 37°23' E 025°14'0 0.0
2017-Sep-21 15:59N 37°23' E 025°14'0 0.0
2017-Sep-21 15:29N 37°23' E 025°14'0 0.0
2017-Sep-21 14:53N 37°23' E 025°14'0 0.0
2017-Sep-21 14:29N 37°23' E 025°14'0 0.0
2017-Sep-21 13:56N 37°23' E 025°14'0 0.0
2017-Sep-21 13:29N 37°23' E 025°14'0 0.0
2017-Sep-21 12:59N 37°23' E 025°14'0 0.0
2017-Sep-21 12:29N 37°23' E 025°14'0 0.0
2017-Sep-21 11:59N 37°23' E 025°14'0 0.0
2017-Sep-21 11:29N 37°23' E 025°14'0 0.0
2017-Sep-21 10:50N 37°23' E 025°14'0 0.0
2017-Sep-21 10:26N 37°23' E 025°14'0 0.0
2017-Sep-21 09:59N 37°23' E 025°14'2 3.2
2017-Sep-21 09:30N 37°21' E 025°14'1 2.5
2017-Sep-21 09:00N 37°21' E 025°16'3 6.7
2017-Sep-21 08:30N 37°24' E 025°17'2 3.6
2017-Sep-21 08:00N 37°25' E 025°15'1 2.3
2017-Sep-21 07:30N 37°24' E 025°14'0 0.0
2017-Sep-21 07:00N 37°24' E 025°14'0 0.0
2017-Sep-21 06:30N 37°24' E 025°14'0 0.0
2017-Sep-21 06:00N 37°24' E 025°14'0 0.0
2017-Sep-21 05:30N 37°24' E 025°14'0 0.0
2017-Sep-21 05:00N 37°24' E 025°14'0 0.0
2017-Sep-21 04:30N 37°24' E 025°14'0 0.0
2017-Sep-21 04:00N 37°24' E 025°14'0 0.0
2017-Sep-21 03:30N 37°24' E 025°14'0 0.0
2017-Sep-21 03:00N 37°24' E 025°14'0 0.0
2017-Sep-21 02:30N 37°24' E 025°14'0 0.0
2017-Sep-21 02:00N 37°24' E 025°14'0 0.0
2017-Sep-21 01:30N 37°24' E 025°14'0 0.0
2017-Sep-21 00:57N 37°24' E 025°14'0 0.0
2017-Sep-21 00:30N 37°24' E 025°14'0 0.0
2017-Sep-21 00:00N 37°24' E 025°14'0 0.0
2017-Sep-20 23:27N 37°24' E 025°14'0 0.0
2017-Sep-20 22:57N 37°24' E 025°14'0 0.0
2017-Sep-20 22:24N 37°24' E 025°14'0 0.0
2017-Sep-20 22:00N 37°24' E 025°14'0 0.0
2017-Sep-20 21:30N 37°24' E 025°14'0 0.0
2017-Sep-20 21:00N 37°24' E 025°14'0 0.0
2017-Sep-20 20:30N 37°24' E 025°14'0 0.0
2017-Sep-20 20:00N 37°24' E 025°14'0 0.0
2017-Sep-20 19:30N 37°24' E 025°14'0 0.0
2017-Sep-20 19:00N 37°24' E 025°14'0 0.0
2017-Sep-20 18:30N 37°24' E 025°14'0 0.0
2017-Sep-20 18:00N 37°24' E 025°14'0 0.0
2017-Sep-20 17:30N 37°24' E 025°14'0 0.0
2017-Sep-20 17:00N 37°24' E 025°14'0 0.0
2017-Sep-20 16:30N 37°24' E 025°14'0 0.0
2017-Sep-20 16:00N 37°24' E 025°14'0 0.0
2017-Sep-20 15:30N 37°24' E 025°14'0 0.0
2017-Sep-20 13:42N 37°24' E 025°14'0 1.7
2017-Sep-20 13:28N 37°24' E 025°15'3 5.3
2017-Sep-20 13:00N 37°27' E 025°14'4 7.1
2017-Sep-20 12:29N 37°26' E 025°09'4 7.6
2017-Sep-20 12:00N 37°26' E 025°05'4 7.2
2017-Sep-20 11:27N 37°26' E 024°60'1 1.1
2017-Sep-20 10:44N 37°26' E 024°59'0 0.0
2017-Sep-20 10:05N 37°26' E 024°59'0 0.0
2017-Sep-20 09:47N 37°26' E 024°59'0 0.0
2017-Sep-20 09:08N 37°26' E 024°59'2 1.8
2017-Sep-20 08:04N 37°27' E 024°60'1 6.1
2017-Sep-20 07:53N 37°28' E 024°59'3 6.2
2017-Sep-20 07:22N 37°31' E 024°56'4 0.2
2017-Sep-19 10:25N 37°29' E 024°51'3 7.7
2017-Sep-19 10:00N 37°29' E 024°47'47 1.0
2017-Sep-17 09:22N 37°39' E 023°49'3 7.4
2017-Sep-17 08:55N 37°39' E 023°45'3 7.1
2017-Sep-17 08:30N 37°40' E 023°41'3 6.8
2017-Sep-17 08:00N 37°40' E 023°37'3 7.0
2017-Sep-17 07:30N 37°40' E 023°32'1 0.1
2017-Sep-16 15:08N 37°41' E 023°31'1 7.1
2017-Sep-16 15:01N 37°42' E 023°32'3 7.0
2017-Sep-16 14:31N 37°44' E 023°35'4 7.1
2017-Sep-16 14:01N 37°48' E 023°37'4 7.3
2017-Sep-16 13:31N 37°51' E 023°39'4 7.0
2017-Sep-16 13:01N 37°54' E 023°41'1 2.1
2017-Sep-16 12:30N 37°55' E 023°42'0 0.0
2017-Sep-16 11:54N 37°55' E 023°42'0 0.0
2017-Sep-16 11:30N 37°55' E 023°42'0 0.0
2017-Sep-16 11:00N 37°55' E 023°42'0 0.0
2017-Sep-16 10:30N 37°55' E 023°42'0 0.0
2017-Sep-16 10:00N 37°55' E 023°42'0 0.0
2017-Sep-16 09:30N 37°55' E 023°42'0 0.0
2017-Sep-16 09:00N 37°55' E 023°42'0 0.0
2017-Sep-16 08:30N 37°55' E 023°42'0 0.0
2017-Sep-16 08:00N 37°55' E 023°42'0 0.0
2017-Sep-16 07:30N 37°55' E 023°42'0 0.0
2017-Sep-16 07:00N 37°55' E 023°42'0 0.0
2017-Sep-16 06:30N 37°55' E 023°42'0 0.0
2017-Sep-16 06:00N 37°55' E 023°42'0 0.0
2017-Sep-16 05:30N 37°55' E 023°42'0 0.0
2017-Sep-16 05:00N 37°55' E 023°42'0 0.0
2017-Sep-16 04:30N 37°55' E 023°42'0 0.0
2017-Sep-16 03:54N 37°55' E 023°42'0 0.0
2017-Sep-16 03:30N 37°55' E 023°42'0 0.0
2017-Sep-16 03:00N 37°55' E 023°42'0 0.0
2017-Sep-16 02:30N 37°55' E 023°42'0 0.0
2017-Sep-16 02:00N 37°55' E 023°42'0 0.0
2017-Sep-16 01:30N 37°55' E 023°42'0 0.0
2017-Sep-16 01:00N 37°55' E 023°42'0 0.0
2017-Sep-16 00:27N 37°55' E 023°42'0 0.0
2017-Sep-16 00:00N 37°55' E 023°42'0 0.0
2017-Sep-15 23:30N 37°55' E 023°42'0 0.0
2017-Sep-15 23:00N 37°55' E 023°42'0 0.0
2017-Sep-15 22:30N 37°55' E 023°42'0 0.0
2017-Sep-15 21:57N 37°55' E 023°42'0 0.0
2017-Sep-15 21:30N 37°55' E 023°42'0 0.0
2017-Sep-15 21:00N 37°55' E 023°42'0 0.0
2017-Sep-15 20:30N 37°55' E 023°42'0 0.0
2017-Sep-15 20:00N 37°55' E 023°42'0 0.0
2017-Sep-15 19:30N 37°55' E 023°42'0 0.0
2017-Sep-15 19:00N 37°55' E 023°42'0 0.0
2017-Sep-15 18:30N 37°55' E 023°42'0 0.0
2017-Sep-15 18:00N 37°55' E 023°42'0 0.0
2017-Sep-15 17:30N 37°55' E 023°42'0 0.0
2017-Sep-15 17:00N 37°55' E 023°42'0 0.0
2017-Sep-15 16:30N 37°55' E 023°42'0 0.0
2017-Sep-15 15:57N 37°55' E 023°42'0 0.0
2017-Sep-15 15:30N 37°55' E 023°42'0 0.0
2017-Sep-15 15:00N 37°55' E 023°42'0 0.0
2017-Sep-15 14:30N 37°55' E 023°42'0 0.0
2017-Sep-15 14:00N 37°55' E 023°42'0 0.0
2017-Sep-15 13:30N 37°55' E 023°42'0 0.0
2017-Sep-15 13:00N 37°55' E 023°42'0 0.0
2017-Sep-15 12:30N 37°55' E 023°42'0 0.0
2017-Sep-15 12:00N 37°55' E 023°42'0 0.0
2017-Sep-15 11:27N 37°55' E 023°42'0 0.0
2017-Sep-15 11:00N 37°55' E 023°42'0 0.0
2017-Sep-15 10:30N 37°55' E 023°42'0 0.0
2017-Sep-15 10:00N 37°55' E 023°42'0 0.0
2017-Sep-15 09:27N 37°55' E 023°42'0 0.0
2017-Sep-15 09:00N 37°55' E 023°42'0 0.0
2017-Sep-15 08:30N 37°55' E 023°42'0 0.0
2017-Sep-15 08:00N 37°55' E 023°42'0 0.0
2017-Sep-15 07:18N 37°55' E 023°42'0 0.0
2017-Sep-15 07:00N 37°55' E 023°42'0 0.0
2017-Sep-15 06:24N 37°55' E 023°42'0 0.0
2017-Sep-15 06:00N 37°55' E 023°42'0 0.0
2017-Sep-15 05:30N 37°55' E 023°42'0 0.0
2017-Sep-15 05:00N 37°55' E 023°42'0 0.0
2017-Sep-15 04:27N 37°55' E 023°42'0 0.0
2017-Sep-15 04:00N 37°55' E 023°42'0 0.0
2017-Sep-15 03:30N 37°55' E 023°42'0 0.0
2017-Sep-15 03:00N 37°55' E 023°42'0 0.0
2017-Sep-15 02:30N 37°55' E 023°42'0 0.0
2017-Sep-15 02:00N 37°55' E 023°42'0 0.0
2017-Sep-15 01:27N 37°55' E 023°42'0 0.0
2017-Sep-15 01:00N 37°55' E 023°42'0 0.0
2017-Sep-15 00:30N 37°55' E 023°42'0 0.0
2017-Sep-14 23:57N 37°55' E 023°42'0 0.0
2017-Sep-14 23:30N 37°55' E 023°42'0 0.0
2017-Sep-14 23:00N 37°55' E 023°42'0 0.0
2017-Sep-14 22:30N 37°55' E 023°42'0 0.0
2017-Sep-14 22:00N 37°55' E 023°42'0 0.0
2017-Sep-14 21:30N 37°55' E 023°42'0 0.0
2017-Sep-14 21:00N 37°55' E 023°42'0 0.0
2017-Sep-14 20:30N 37°55' E 023°42'0 0.0
2017-Sep-14 20:00N 37°55' E 023°42'0 0.0
2017-Sep-14 19:30N 37°55' E 023°42'0 0.0
2017-Sep-14 19:00N 37°55' E 023°42'0 0.0
2017-Sep-14 18:30N 37°55' E 023°42'0 0.0
2017-Sep-14 18:00N 37°55' E 023°42'0 0.0
2017-Sep-14 17:30N 37°55' E 023°42'0 0.0
2017-Sep-14 17:00N 37°55' E 023°42'0 0.0
2017-Sep-14 16:30N 37°55' E 023°42'0 0.0
2017-Sep-14 16:00N 37°55' E 023°42'0 0.0
2017-Sep-14 15:30N 37°55' E 023°42'0 0.0
2017-Sep-14 15:00N 37°55' E 023°42'0 0.0
2017-Sep-14 14:30N 37°55' E 023°42'0 0.0
2017-Sep-14 14:00N 37°55' E 023°42'0 0.0
2017-Sep-14 13:30N 37°55' E 023°42'0 0.0
2017-Sep-14 12:57N 37°55' E 023°42'0 0.0
2017-Sep-14 12:30N 37°55' E 023°42'0 0.0
2017-Sep-14 12:00N 37°55' E 023°42'0 0.0
2017-Sep-14 11:27N 37°55' E 023°42'0 0.0
2017-Sep-14 10:48N 37°55' E 023°42'0 0.0
2017-Sep-14 10:30N 37°55' E 023°42'0 0.0
2017-Sep-14 09:57N 37°55' E 023°42'0 0.0
2017-Sep-14 09:30N 37°55' E 023°42'0 0.0
2017-Sep-14 09:00N 37°55' E 023°42'0 0.0
2017-Sep-14 08:30N 37°55' E 023°42'0 0.0
2017-Sep-14 08:00N 37°55' E 023°42'0 0.0
2017-Sep-14 07:30N 37°55' E 023°42'0 0.0
2017-Sep-14 07:00N 37°55' E 023°42'0 0.0
2017-Sep-14 06:30N 37°55' E 023°42'0 0.0
2017-Sep-14 06:00N 37°55' E 023°42'0 0.0
2017-Sep-14 05:27N 37°55' E 023°42'0 0.0
2017-Sep-14 04:48N 37°55' E 023°42'0 0.0
2017-Sep-14 04:24N 37°55' E 023°42'0 0.0
2017-Sep-14 03:48N 37°55' E 023°42'0 0.0
2017-Sep-14 03:09N 37°55' E 023°42'0 0.0
2017-Sep-14 02:51N 37°55' E 023°42'0 0.0
2017-Sep-14 02:06N 37°55' E 023°42'0 0.0
2017-Sep-14 02:00N 37°55' E 023°42'0 0.0
2017-Sep-14 01:30N 37°55' E 023°42'0 0.0
2017-Sep-14 00:54N 37°55' E 023°42'  

Dump ship's entire track history